sensor_id;sensor_type;location;lat;lon;timestamp;P1;durP1;ratioP1;P2;durP2;ratioP2
52208;SDS011;38507;53.132;6.394;2023-03-03T00:01:01;35.10;;;15.90;;
52208;SDS011;38507;53.132;6.394;2023-03-03T00:03:28;47.47;;;15.32;;
52208;SDS011;38507;53.132;6.394;2023-03-03T00:05:53;51.72;;;15.85;;
52208;SDS011;38507;53.132;6.394;2023-03-03T00:08:20;42.15;;;14.57;;
52208;SDS011;38507;53.132;6.394;2023-03-03T00:10:46;71.00;;;16.17;;
52208;SDS011;38507;53.132;6.394;2023-03-03T00:13:19;34.67;;;15.70;;
52208;SDS011;38507;53.132;6.394;2023-03-03T00:15:46;37.27;;;14.87;;
52208;SDS011;38507;53.132;6.394;2023-03-03T00:18:32;39.60;;;15.38;;
52208;SDS011;38507;53.132;6.394;2023-03-03T00:21:01;50.20;;;14.73;;
52208;SDS011;38507;53.132;6.394;2023-03-03T00:23:45;119.93;;;14.73;;
52208;SDS011;38507;53.132;6.394;2023-03-03T00:26:20;60.67;;;12.73;;
52208;SDS011;38507;53.132;6.394;2023-03-03T00:28:59;35.03;;;12.35;;
52208;SDS011;38507;53.132;6.394;2023-03-03T00:37:00;47.05;;;10.25;;
52208;SDS011;38507;53.132;6.394;2023-03-03T00:42:00;229.23;;;15.40;;
52208;SDS011;38507;53.132;6.394;2023-03-03T00:45:04;122.35;;;12.55;;
52208;SDS011;38507;53.132;6.394;2023-03-03T00:47:34;105.30;;;11.38;;
52208;SDS011;38507;53.132;6.394;2023-03-03T00:52:30;64.38;;;10.38;;
52208;SDS011;38507;53.132;6.394;2023-03-03T00:54:59;163.85;;;12.57;;
52208;SDS011;38507;53.132;6.394;2023-03-03T00:57:24;68.78;;;10.13;;
52208;SDS011;38507;53.132;6.394;2023-03-03T00:59:50;54.30;;;9.35;;
52208;SDS011;38507;53.132;6.394;2023-03-03T01:02:16;40.85;;;9.30;;
52208;SDS011;38507;53.132;6.394;2023-03-03T01:04:42;29.83;;;9.27;;
52208;SDS011;38507;53.132;6.394;2023-03-03T01:07:11;55.85;;;9.07;;
52208;SDS011;38507;53.132;6.394;2023-03-03T01:09:37;24.75;;;9.38;;
52208;SDS011;38507;53.132;6.394;2023-03-03T01:12:03;21.95;;;9.30;;
52208;SDS011;38507;53.132;6.394;2023-03-03T01:14:28;54.42;;;9.70;;
52208;SDS011;38507;53.132;6.394;2023-03-03T01:16:54;43.30;;;8.50;;
52208;SDS011;38507;53.132;6.394;2023-03-03T01:19:20;81.70;;;8.43;;
52208;SDS011;38507;53.132;6.394;2023-03-03T01:21:45;61.50;;;7.90;;
52208;SDS011;38507;53.132;6.394;2023-03-03T01:24:11;53.22;;;7.43;;
52208;SDS011;38507;53.132;6.394;2023-03-03T01:26:36;44.35;;;7.88;;
52208;SDS011;38507;53.132;6.394;2023-03-03T01:29:02;34.90;;;7.28;;
52208;SDS011;38507;53.132;6.394;2023-03-03T01:31:28;59.90;;;8.70;;
52208;SDS011;38507;53.132;6.394;2023-03-03T01:33:53;38.80;;;7.32;;
52208;SDS011;38507;53.132;6.394;2023-03-03T01:36:23;107.32;;;8.40;;
52208;SDS011;38507;53.132;6.394;2023-03-03T01:38:49;60.40;;;7.45;;
52208;SDS011;38507;53.132;6.394;2023-03-03T01:41:15;39.15;;;7.30;;
52208;SDS011;38507;53.132;6.394;2023-03-03T01:43:46;47.90;;;7.03;;
52208;SDS011;38507;53.132;6.394;2023-03-03T01:48:49;113.13;;;10.55;;
52208;SDS011;38507;53.132;6.394;2023-03-03T01:53:53;85.18;;;9.68;;
52208;SDS011;38507;53.132;6.394;2023-03-03T01:56:21;71.78;;;9.25;;
52208;SDS011;38507;53.132;6.394;2023-03-03T01:58:49;126.68;;;9.82;;
52208;SDS011;38507;53.132;6.394;2023-03-03T02:01:18;96.68;;;9.48;;
52208;SDS011;38507;53.132;6.394;2023-03-03T02:03:45;124.85;;;10.75;;
52208;SDS011;38507;53.132;6.394;2023-03-03T02:06:13;122.72;;;8.32;;
52208;SDS011;38507;53.132;6.394;2023-03-03T02:11:23;57.85;;;6.85;;
52208;SDS011;38507;53.132;6.394;2023-03-03T02:13:50;98.82;;;6.93;;
52208;SDS011;38507;53.132;6.394;2023-03-03T02:16:16;96.00;;;7.50;;
52208;SDS011;38507;53.132;6.394;2023-03-03T02:18:42;92.97;;;7.85;;
52208;SDS011;38507;53.132;6.394;2023-03-03T02:21:13;57.15;;;6.60;;
52208;SDS011;38507;53.132;6.394;2023-03-03T02:26:31;40.20;;;7.75;;
52208;SDS011;38507;53.132;6.394;2023-03-03T02:29:00;40.30;;;7.75;;
52208;SDS011;38507;53.132;6.394;2023-03-03T02:31:27;35.47;;;7.43;;
52208;SDS011;38507;53.132;6.394;2023-03-03T02:33:54;32.63;;;7.00;;
52208;SDS011;38507;53.132;6.394;2023-03-03T02:44:09;28.75;;;7.28;;
52208;SDS011;38507;53.132;6.394;2023-03-03T02:46:41;31.10;;;6.30;;
52208;SDS011;38507;53.132;6.394;2023-03-03T02:49:09;35.95;;;6.57;;
52208;SDS011;38507;53.132;6.394;2023-03-03T02:51:37;33.50;;;6.97;;
52208;SDS011;38507;53.132;6.394;2023-03-03T02:54:03;45.40;;;6.90;;
52208;SDS011;38507;53.132;6.394;2023-03-03T02:56:30;28.00;;;6.28;;
52208;SDS011;38507;53.132;6.394;2023-03-03T02:58:56;22.50;;;6.70;;
52208;SDS011;38507;53.132;6.394;2023-03-03T03:01:21;13.25;;;6.35;;
52208;SDS011;38507;53.132;6.394;2023-03-03T03:03:47;15.50;;;6.05;;
52208;SDS011;38507;53.132;6.394;2023-03-03T03:06:13;45.50;;;7.13;;
52208;SDS011;38507;53.132;6.394;2023-03-03T03:08:39;19.30;;;6.60;;
52208;SDS011;38507;53.132;6.394;2023-03-03T03:11:05;13.95;;;6.13;;
52208;SDS011;38507;53.132;6.394;2023-03-03T03:13:30;19.52;;;5.47;;
52208;SDS011;38507;53.132;6.394;2023-03-03T03:15:56;17.77;;;6.78;;
52208;SDS011;38507;53.132;6.394;2023-03-03T03:18:23;11.50;;;6.53;;
52208;SDS011;38507;53.132;6.394;2023-03-03T03:20:50;34.97;;;6.65;;
52208;SDS011;38507;53.132;6.394;2023-03-03T03:23:15;27.00;;;6.93;;
52208;SDS011;38507;53.132;6.394;2023-03-03T03:25:42;26.83;;;7.50;;
52208;SDS011;38507;53.132;6.394;2023-03-03T03:28:11;19.10;;;6.65;;
52208;SDS011;38507;53.132;6.394;2023-03-03T03:30:38;16.10;;;6.03;;
52208;SDS011;38507;53.132;6.394;2023-03-03T03:33:04;19.90;;;6.32;;
52208;SDS011;38507;53.132;6.394;2023-03-03T03:35:31;10.77;;;6.10;;
52208;SDS011;38507;53.132;6.394;2023-03-03T03:37:58;21.83;;;6.78;;
52208;SDS011;38507;53.132;6.394;2023-03-03T03:40:23;19.55;;;6.53;;
52208;SDS011;38507;53.132;6.394;2023-03-03T03:42:50;17.55;;;6.60;;
52208;SDS011;38507;53.132;6.394;2023-03-03T03:45:17;14.20;;;6.18;;
52208;SDS011;38507;53.132;6.394;2023-03-03T03:47:43;18.30;;;5.57;;
52208;SDS011;38507;53.132;6.394;2023-03-03T03:50:09;25.42;;;7.10;;
52208;SDS011;38507;53.132;6.394;2023-03-03T03:52:36;11.25;;;6.70;;
52208;SDS011;38507;53.132;6.394;2023-03-03T03:55:02;45.22;;;6.85;;
52208;SDS011;38507;53.132;6.394;2023-03-03T03:57:28;41.22;;;6.82;;
52208;SDS011;38507;53.132;6.394;2023-03-03T03:59:53;45.40;;;7.55;;
52208;SDS011;38507;53.132;6.394;2023-03-03T04:02:19;20.75;;;6.65;;
52208;SDS011;38507;53.132;6.394;2023-03-03T04:04:45;41.17;;;7.28;;
52208;SDS011;38507;53.132;6.394;2023-03-03T04:07:10;26.98;;;7.47;;
52208;SDS011;38507;53.132;6.394;2023-03-03T04:09:36;30.25;;;7.70;;
52208;SDS011;38507;53.132;6.394;2023-03-03T04:12:02;30.58;;;7.18;;
52208;SDS011;38507;53.132;6.394;2023-03-03T04:14:28;60.78;;;7.85;;
52208;SDS011;38507;53.132;6.394;2023-03-03T04:16:54;32.10;;;6.45;;
52208;SDS011;38507;53.132;6.394;2023-03-03T04:19:20;15.82;;;6.18;;
52208;SDS011;38507;53.132;6.394;2023-03-03T04:21:46;21.98;;;7.47;;
52208;SDS011;38507;53.132;6.394;2023-03-03T04:24:11;24.83;;;7.30;;
52208;SDS011;38507;53.132;6.394;2023-03-03T04:26:37;10.80;;;5.65;;
52208;SDS011;38507;53.132;6.394;2023-03-03T04:29:03;23.83;;;6.63;;
52208;SDS011;38507;53.132;6.394;2023-03-03T04:31:28;14.20;;;6.15;;
52208;SDS011;38507;53.132;6.394;2023-03-03T04:33:54;14.40;;;6.47;;
52208;SDS011;38507;53.132;6.394;2023-03-03T04:36:20;10.52;;;6.85;;
52208;SDS011;38507;53.132;6.394;2023-03-03T04:38:46;10.30;;;6.43;;
52208;SDS011;38507;53.132;6.394;2023-03-03T04:41:11;13.75;;;7.00;;
52208;SDS011;38507;53.132;6.394;2023-03-03T04:43:37;12.10;;;7.03;;
52208;SDS011;38507;53.132;6.394;2023-03-03T04:46:03;11.25;;;6.82;;
52208;SDS011;38507;53.132;6.394;2023-03-03T04:48:29;9.82;;;6.10;;
52208;SDS011;38507;53.132;6.394;2023-03-03T04:50:54;11.32;;;6.70;;
52208;SDS011;38507;53.132;6.394;2023-03-03T04:53:20;8.95;;;5.70;;
52208;SDS011;38507;53.132;6.394;2023-03-03T04:55:49;9.93;;;6.10;;
52208;SDS011;38507;53.132;6.394;2023-03-03T04:58:16;6.97;;;4.78;;
52208;SDS011;38507;53.132;6.394;2023-03-03T05:00:47;8.63;;;5.30;;
52208;SDS011;38507;53.132;6.394;2023-03-03T05:03:18;7.60;;;4.90;;
52208;SDS011;38507;53.132;6.394;2023-03-03T05:05:45;10.10;;;5.70;;
52208;SDS011;38507;53.132;6.394;2023-03-03T05:08:11;8.27;;;5.18;;
52208;SDS011;38507;53.132;6.394;2023-03-03T05:10:37;9.80;;;6.45;;
52208;SDS011;38507;53.132;6.394;2023-03-03T05:13:03;9.27;;;5.32;;
52208;SDS011;38507;53.132;6.394;2023-03-03T05:15:30;9.02;;;5.60;;
52208;SDS011;38507;53.132;6.394;2023-03-03T05:17:56;8.38;;;5.05;;
52208;SDS011;38507;53.132;6.394;2023-03-03T05:20:22;8.20;;;4.80;;
52208;SDS011;38507;53.132;6.394;2023-03-03T05:22:49;9.70;;;6.05;;
52208;SDS011;38507;53.132;6.394;2023-03-03T05:25:15;11.45;;;6.93;;
52208;SDS011;38507;53.132;6.394;2023-03-03T05:27:40;10.63;;;6.63;;
52208;SDS011;38507;53.132;6.394;2023-03-03T05:30:07;10.63;;;6.00;;
52208;SDS011;38507;53.132;6.394;2023-03-03T05:32:34;10.57;;;6.47;;
52208;SDS011;38507;53.132;6.394;2023-03-03T05:35:00;12.32;;;6.25;;
52208;SDS011;38507;53.132;6.394;2023-03-03T05:37:26;9.45;;;5.82;;
52208;SDS011;38507;53.132;6.394;2023-03-03T05:39:51;9.32;;;5.88;;
52208;SDS011;38507;53.132;6.394;2023-03-03T05:42:17;10.52;;;6.40;;
52208;SDS011;38507;53.132;6.394;2023-03-03T05:44:43;8.35;;;5.85;;
52208;SDS011;38507;53.132;6.394;2023-03-03T05:47:08;10.70;;;6.07;;
52208;SDS011;38507;53.132;6.394;2023-03-03T05:49:34;10.15;;;5.60;;
52208;SDS011;38507;53.132;6.394;2023-03-03T05:52:00;9.20;;;5.72;;
52208;SDS011;38507;53.132;6.394;2023-03-03T05:54:26;11.45;;;6.57;;
52208;SDS011;38507;53.132;6.394;2023-03-03T05:56:52;11.20;;;6.72;;
52208;SDS011;38507;53.132;6.394;2023-03-03T05:59:17;8.70;;;5.70;;
52208;SDS011;38507;53.132;6.394;2023-03-03T06:01:43;11.63;;;6.15;;
52208;SDS011;38507;53.132;6.394;2023-03-03T06:04:09;9.13;;;5.22;;
52208;SDS011;38507;53.132;6.394;2023-03-03T06:06:35;8.70;;;5.32;;
52208;SDS011;38507;53.132;6.394;2023-03-03T06:09:00;10.95;;;5.60;;
52208;SDS011;38507;53.132;6.394;2023-03-03T06:11:26;11.77;;;5.85;;
52208;SDS011;38507;53.132;6.394;2023-03-03T06:13:52;8.68;;;5.30;;
52208;SDS011;38507;53.132;6.394;2023-03-03T06:16:17;9.20;;;5.05;;
52208;SDS011;38507;53.132;6.394;2023-03-03T06:18:43;10.27;;;5.63;;
52208;SDS011;38507;53.132;6.394;2023-03-03T06:21:09;9.20;;;5.40;;
52208;SDS011;38507;53.132;6.394;2023-03-03T06:23:34;10.85;;;6.28;;
52208;SDS011;38507;53.132;6.394;2023-03-03T06:26:00;10.73;;;5.32;;
52208;SDS011;38507;53.132;6.394;2023-03-03T06:28:26;8.48;;;5.40;;
52208;SDS011;38507;53.132;6.394;2023-03-03T06:30:52;12.70;;;6.22;;
52208;SDS011;38507;53.132;6.394;2023-03-03T06:33:19;10.25;;;6.45;;
52208;SDS011;38507;53.132;6.394;2023-03-03T06:35:48;8.95;;;5.53;;
52208;SDS011;38507;53.132;6.394;2023-03-03T06:38:17;8.60;;;5.40;;
52208;SDS011;38507;53.132;6.394;2023-03-03T06:40:43;12.07;;;5.60;;
52208;SDS011;38507;53.132;6.394;2023-03-03T06:43:10;10.90;;;5.50;;
52208;SDS011;38507;53.132;6.394;2023-03-03T06:45:35;9.57;;;5.72;;
52208;SDS011;38507;53.132;6.394;2023-03-03T06:48:01;10.45;;;5.45;;
52208;SDS011;38507;53.132;6.394;2023-03-03T06:50:28;8.95;;;5.30;;
52208;SDS011;38507;53.132;6.394;2023-03-03T06:52:58;8.82;;;5.43;;
52208;SDS011;38507;53.132;6.394;2023-03-03T06:55:35;8.10;;;4.78;;
52208;SDS011;38507;53.132;6.394;2023-03-03T06:58:03;8.98;;;5.38;;
52208;SDS011;38507;53.132;6.394;2023-03-03T07:00:36;13.75;;;6.97;;
52208;SDS011;38507;53.132;6.394;2023-03-03T07:03:06;13.40;;;6.57;;
52208;SDS011;38507;53.132;6.394;2023-03-03T07:05:38;11.10;;;6.93;;
52208;SDS011;38507;53.132;6.394;2023-03-03T07:08:17;12.18;;;6.53;;
52208;SDS011;38507;53.132;6.394;2023-03-03T07:10:44;10.43;;;6.70;;
52208;SDS011;38507;53.132;6.394;2023-03-03T07:13:27;10.80;;;6.03;;
52208;SDS011;38507;53.132;6.394;2023-03-03T07:15:58;9.85;;;6.13;;
52208;SDS011;38507;53.132;6.394;2023-03-03T07:21:17;13.75;;;6.82;;
52208;SDS011;38507;53.132;6.394;2023-03-03T07:23:43;11.20;;;6.30;;
52208;SDS011;38507;53.132;6.394;2023-03-03T07:26:12;14.80;;;7.25;;
52208;SDS011;38507;53.132;6.394;2023-03-03T07:28:59;13.52;;;7.00;;
52208;SDS011;38507;53.132;6.394;2023-03-03T07:31:29;12.48;;;7.32;;
52208;SDS011;38507;53.132;6.394;2023-03-03T07:33:59;11.05;;;7.00;;
52208;SDS011;38507;53.132;6.394;2023-03-03T07:36:35;13.30;;;6.90;;
52208;SDS011;38507;53.132;6.394;2023-03-03T07:41:53;13.10;;;8.20;;
52208;SDS011;38507;53.132;6.394;2023-03-03T07:44:34;10.65;;;6.47;;
52208;SDS011;38507;53.132;6.394;2023-03-03T07:47:16;12.77;;;7.75;;
52208;SDS011;38507;53.132;6.394;2023-03-03T07:49:44;15.20;;;8.20;;
52208;SDS011;38507;53.132;6.394;2023-03-03T07:52:38;12.68;;;6.43;;
52208;SDS011;38507;53.132;6.394;2023-03-03T07:55:22;10.65;;;6.38;;
52208;SDS011;38507;53.132;6.394;2023-03-03T07:57:48;11.40;;;7.45;;
52208;SDS011;38507;53.132;6.394;2023-03-03T08:08:02;13.57;;;7.40;;
52208;SDS011;38507;53.132;6.394;2023-03-03T08:10:49;13.85;;;8.27;;
52208;SDS011;38507;53.132;6.394;2023-03-03T08:13:18;14.80;;;7.60;;
52208;SDS011;38507;53.132;6.394;2023-03-03T08:16:34;14.20;;;7.13;;
52208;SDS011;38507;53.132;6.394;2023-03-03T08:18:34;12.52;;;7.88;;
52208;SDS011;38507;53.132;6.394;2023-03-03T08:21:04;19.48;;;7.72;;
52208;SDS011;38507;53.132;6.394;2023-03-03T08:23:38;16.73;;;8.43;;
52208;SDS011;38507;53.132;6.394;2023-03-03T08:26:04;14.07;;;7.72;;
52208;SDS011;38507;53.132;6.394;2023-03-03T08:28:30;21.10;;;8.55;;
52208;SDS011;38507;53.132;6.394;2023-03-03T08:30:56;16.58;;;8.00;;
52208;SDS011;38507;53.132;6.394;2023-03-03T08:33:22;15.55;;;8.40;;
52208;SDS011;38507;53.132;6.394;2023-03-03T08:35:47;14.73;;;9.63;;
52208;SDS011;38507;53.132;6.394;2023-03-03T08:38:14;19.17;;;10.52;;
52208;SDS011;38507;53.132;6.394;2023-03-03T08:40:43;17.63;;;10.32;;
52208;SDS011;38507;53.132;6.394;2023-03-03T08:43:09;22.75;;;11.25;;
52208;SDS011;38507;53.132;6.394;2023-03-03T08:45:37;18.20;;;10.10;;
52208;SDS011;38507;53.132;6.394;2023-03-03T08:48:03;15.88;;;8.98;;
52208;SDS011;38507;53.132;6.394;2023-03-03T08:50:29;14.30;;;8.43;;
52208;SDS011;38507;53.132;6.394;2023-03-03T08:52:55;17.13;;;8.70;;
52208;SDS011;38507;53.132;6.394;2023-03-03T08:55:20;19.23;;;9.10;;
52208;SDS011;38507;53.132;6.394;2023-03-03T08:57:46;19.58;;;9.18;;
52208;SDS011;38507;53.132;6.394;2023-03-03T09:00:13;17.83;;;8.57;;
52208;SDS011;38507;53.132;6.394;2023-03-03T09:02:40;14.40;;;8.55;;
52208;SDS011;38507;53.132;6.394;2023-03-03T09:05:06;14.20;;;8.25;;
52208;SDS011;38507;53.132;6.394;2023-03-03T09:07:32;19.77;;;8.13;;
52208;SDS011;38507;53.132;6.394;2023-03-03T09:09:58;14.80;;;8.35;;
52208;SDS011;38507;53.132;6.394;2023-03-03T09:12:27;17.05;;;8.07;;
52208;SDS011;38507;53.132;6.394;2023-03-03T09:14:54;20.58;;;8.15;;
52208;SDS011;38507;53.132;6.394;2023-03-03T09:17:33;17.58;;;8.05;;
52208;SDS011;38507;53.132;6.394;2023-03-03T09:22:59;20.08;;;8.05;;
52208;SDS011;38507;53.132;6.394;2023-03-03T09:25:41;17.50;;;9.10;;
52208;SDS011;38507;53.132;6.394;2023-03-03T09:28:40;17.23;;;9.07;;
52208;SDS011;38507;53.132;6.394;2023-03-03T09:31:00;16.83;;;8.77;;
52208;SDS011;38507;53.132;6.394;2023-03-03T09:33:28;14.95;;;8.95;;
52208;SDS011;38507;53.132;6.394;2023-03-03T09:38:43;19.95;;;9.13;;
52208;SDS011;38507;53.132;6.394;2023-03-03T09:44:00;13.98;;;7.80;;
52208;SDS011;38507;53.132;6.394;2023-03-03T09:47:00;13.32;;;8.52;;
52208;SDS011;38507;53.132;6.394;2023-03-03T09:58:27;12.52;;;7.55;;
52208;SDS011;38507;53.132;6.394;2023-03-03T10:18:20;11.15;;;7.45;;
52208;SDS011;38507;53.132;6.394;2023-03-03T10:29:57;8.83;;;5.23;;
52208;SDS011;38507;53.132;6.394;2023-03-03T10:32:34;11.23;;;5.50;;
52208;SDS011;38507;53.132;6.394;2023-03-03T10:38:08;10.20;;;5.72;;
52208;SDS011;38507;53.132;6.394;2023-03-03T10:40:56;8.00;;;4.80;;
52208;SDS011;38507;53.132;6.394;2023-03-03T11:00:25;3.13;;;0.80;;
52208;SDS011;38507;53.132;6.394;2023-03-03T11:05:34;5.50;;;0.88;;
52208;SDS011;38507;53.132;6.394;2023-03-03T11:08:27;7.18;;;1.10;;
52208;SDS011;38507;53.132;6.394;2023-03-03T11:16:57;5.97;;;0.80;;
52208;SDS011;38507;53.132;6.394;2023-03-03T11:19:39;3.38;;;0.82;;
52208;SDS011;38507;53.132;6.394;2023-03-03T11:22:35;2.67;;;0.55;;
52208;SDS011;38507;53.132;6.394;2023-03-03T11:25:20;6.22;;;0.85;;
52208;SDS011;38507;53.132;6.394;2023-03-03T11:27:58;12.50;;;1.20;;
52208;SDS011;38507;53.132;6.394;2023-03-03T11:38:58;3.58;;;0.82;;
52208;SDS011;38507;53.132;6.394;2023-03-03T11:55:08;5.57;;;0.90;;
52208;SDS011;38507;53.132;6.394;2023-03-03T11:57:42;7.03;;;0.88;;
52208;SDS011;38507;53.132;6.394;2023-03-03T12:00:36;4.38;;;0.82;;
52208;SDS011;38507;53.132;6.394;2023-03-03T12:19:27;6.35;;;0.90;;
52208;SDS011;38507;53.132;6.394;2023-03-03T12:22:35;7.63;;;0.80;;
52208;SDS011;38507;53.132;6.394;2023-03-03T12:33:58;5.28;;;0.98;;
52208;SDS011;38507;53.132;6.394;2023-03-03T12:36:54;7.78;;;1.30;;
52208;SDS011;38507;53.132;6.394;2023-03-03T12:39:39;12.07;;;1.20;;
52208;SDS011;38507;53.132;6.394;2023-03-03T12:42:16;6.38;;;0.90;;
52208;SDS011;38507;53.132;6.394;2023-03-03T12:47:52;5.22;;;0.80;;
52208;SDS011;38507;53.132;6.394;2023-03-03T12:56:07;10.18;;;1.13;;
52208;SDS011;38507;53.132;6.394;2023-03-03T12:58:42;9.15;;;1.40;;
52208;SDS011;38507;53.132;6.394;2023-03-03T13:12:16;10.32;;;1.70;;
52208;SDS011;38507;53.132;6.394;2023-03-03T13:17:30;11.18;;;1.65;;
52208;SDS011;38507;53.132;6.394;2023-03-03T13:26:09;11.25;;;1.60;;
52208;SDS011;38507;53.132;6.394;2023-03-03T13:28:57;8.88;;;1.92;;
52208;SDS011;38507;53.132;6.394;2023-03-03T13:31:32;15.13;;;2.00;;
52208;SDS011;38507;53.132;6.394;2023-03-03T13:34:02;7.60;;;1.30;;
52208;SDS011;38507;53.132;6.394;2023-03-03T13:37:02;11.68;;;2.00;;
52208;SDS011;38507;53.132;6.394;2023-03-03T13:39:28;13.73;;;1.70;;
52208;SDS011;38507;53.132;6.394;2023-03-03T13:42:05;13.88;;;2.10;;
52208;SDS011;38507;53.132;6.394;2023-03-03T13:44:43;7.43;;;1.60;;
52208;SDS011;38507;53.132;6.394;2023-03-03T13:55:44;19.02;;;2.60;;
52208;SDS011;38507;53.132;6.394;2023-03-03T13:58:44;21.42;;;3.42;;
52208;SDS011;38507;53.132;6.394;2023-03-03T14:07:21;16.73;;;2.65;;
52208;SDS011;38507;53.132;6.394;2023-03-03T14:15:30;21.10;;;2.90;;
52208;SDS011;38507;53.132;6.394;2023-03-03T14:20:51;22.48;;;2.90;;
52208;SDS011;38507;53.132;6.394;2023-03-03T14:25:59;18.77;;;2.85;;
52208;SDS011;38507;53.132;6.394;2023-03-03T14:28:41;17.73;;;3.30;;
52208;SDS011;38507;53.132;6.394;2023-03-03T14:31:24;23.60;;;3.28;;
52208;SDS011;38507;53.132;6.394;2023-03-03T14:34:02;14.52;;;2.38;;
52208;SDS011;38507;53.132;6.394;2023-03-03T14:36:50;23.25;;;2.63;;
52208;SDS011;38507;53.132;6.394;2023-03-03T14:41:56;27.55;;;3.45;;
52208;SDS011;38507;53.132;6.394;2023-03-03T14:49:41;20.58;;;3.03;;
52208;SDS011;38507;53.132;6.394;2023-03-03T14:52:18;26.27;;;2.90;;
52208;SDS011;38507;53.132;6.394;2023-03-03T14:54:49;17.25;;;2.83;;
52208;SDS011;38507;53.132;6.394;2023-03-03T14:57:18;20.17;;;2.65;;
52208;SDS011;38507;53.132;6.394;2023-03-03T15:02:42;20.40;;;2.90;;
52208;SDS011;38507;53.132;6.394;2023-03-03T15:05:27;25.83;;;2.97;;
52208;SDS011;38507;53.132;6.394;2023-03-03T15:10:27;20.55;;;3.10;;
52208;SDS011;38507;53.132;6.394;2023-03-03T15:13:09;16.33;;;2.55;;
52208;SDS011;38507;53.132;6.394;2023-03-03T15:16:00;18.15;;;3.17;;
52208;SDS011;38507;53.132;6.394;2023-03-03T15:18:30;19.13;;;2.38;;
52208;SDS011;38507;53.132;6.394;2023-03-03T15:23:38;15.82;;;2.53;;
52208;SDS011;38507;53.132;6.394;2023-03-03T15:26:34;23.38;;;2.67;;
52208;SDS011;38507;53.132;6.394;2023-03-03T15:29:14;17.75;;;2.90;;
52208;SDS011;38507;53.132;6.394;2023-03-03T15:34:36;13.98;;;2.40;;
52208;SDS011;38507;53.132;6.394;2023-03-03T15:37:22;20.08;;;3.50;;
52208;SDS011;38507;53.132;6.394;2023-03-03T15:42:41;22.38;;;3.05;;
52208;SDS011;38507;53.132;6.394;2023-03-03T15:48:36;20.23;;;3.30;;
52208;SDS011;38507;53.132;6.394;2023-03-03T15:51:17;29.08;;;4.03;;
52208;SDS011;38507;53.132;6.394;2023-03-03T15:56:47;29.10;;;4.00;;
52208;SDS011;38507;53.132;6.394;2023-03-03T15:59:51;22.92;;;3.10;;
52208;SDS011;38507;53.132;6.394;2023-03-03T16:04:58;25.70;;;2.90;;
52208;SDS011;38507;53.132;6.394;2023-03-03T16:15:50;24.65;;;3.25;;
52208;SDS011;38507;53.132;6.394;2023-03-03T16:24:24;19.40;;;2.72;;
52208;SDS011;38507;53.132;6.394;2023-03-03T16:32:47;26.13;;;2.95;;
52208;SDS011;38507;53.132;6.394;2023-03-03T16:35:23;30.75;;;3.42;;
52208;SDS011;38507;53.132;6.394;2023-03-03T16:40:56;25.95;;;3.17;;
52208;SDS011;38507;53.132;6.394;2023-03-03T17:04:45;21.30;;;2.95;;
52208;SDS011;38507;53.132;6.394;2023-03-03T17:28:04;26.58;;;3.35;;
52208;SDS011;38507;53.132;6.394;2023-03-03T17:30:55;19.80;;;2.88;;
52208;SDS011;38507;53.132;6.394;2023-03-03T17:34:01;30.90;;;3.85;;
52208;SDS011;38507;53.132;6.394;2023-03-03T17:39:31;24.38;;;4.22;;
52208;SDS011;38507;53.132;6.394;2023-03-03T17:45:16;23.23;;;2.97;;
52208;SDS011;38507;53.132;6.394;2023-03-03T17:50:31;38.10;;;4.10;;
52208;SDS011;38507;53.132;6.394;2023-03-03T18:14:44;28.50;;;4.32;;
52208;SDS011;38507;53.132;6.394;2023-03-03T18:17:25;25.33;;;3.70;;
52208;SDS011;38507;53.132;6.394;2023-03-03T18:23:37;29.40;;;5.00;;
52208;SDS011;38507;53.132;6.394;2023-03-03T18:32:45;34.85;;;4.95;;
52208;SDS011;38507;53.132;6.394;2023-03-03T18:34:42;25.08;;;4.35;;
52208;SDS011;38507;53.132;6.394;2023-03-03T18:37:10;25.17;;;3.50;;
52208;SDS011;38507;53.132;6.394;2023-03-03T18:44:56;33.55;;;4.10;;
52208;SDS011;38507;53.132;6.394;2023-03-03T18:50:42;31.88;;;4.65;;
52208;SDS011;38507;53.132;6.394;2023-03-03T18:55:44;28.73;;;4.70;;
52208;SDS011;38507;53.132;6.394;2023-03-03T19:00:57;25.70;;;3.95;;
52208;SDS011;38507;53.132;6.394;2023-03-03T19:06:01;31.75;;;4.15;;
52208;SDS011;38507;53.132;6.394;2023-03-03T19:16:51;25.07;;;3.67;;
52208;SDS011;38507;53.132;6.394;2023-03-03T19:19:18;27.85;;;3.70;;
52208;SDS011;38507;53.132;6.394;2023-03-03T19:21:49;20.70;;;3.50;;
52208;SDS011;38507;53.132;6.394;2023-03-03T19:24:36;23.50;;;3.45;;
52208;SDS011;38507;53.132;6.394;2023-03-03T19:27:17;22.52;;;3.45;;
52208;SDS011;38507;53.132;6.394;2023-03-03T19:30:06;24.42;;;3.63;;
52208;SDS011;38507;53.132;6.394;2023-03-03T19:35:22;30.98;;;3.85;;
52208;SDS011;38507;53.132;6.394;2023-03-03T19:46:28;27.38;;;3.88;;
52208;SDS011;38507;53.132;6.394;2023-03-03T19:49:14;30.05;;;4.68;;
52208;SDS011;38507;53.132;6.394;2023-03-03T19:52:07;24.63;;;3.65;;
52208;SDS011;38507;53.132;6.394;2023-03-03T19:57:25;25.60;;;3.15;;
52208;SDS011;38507;53.132;6.394;2023-03-03T20:00:22;25.48;;;3.30;;
52208;SDS011;38507;53.132;6.394;2023-03-03T20:05:29;29.40;;;3.50;;
52208;SDS011;38507;53.132;6.394;2023-03-03T20:08:23;23.00;;;4.20;;
52208;SDS011;38507;53.132;6.394;2023-03-03T20:11:43;32.35;;;4.13;;
52208;SDS011;38507;53.132;6.394;2023-03-03T20:14:01;23.00;;;2.97;;
52208;SDS011;38507;53.132;6.394;2023-03-03T20:16:38;21.45;;;3.05;;
52208;SDS011;38507;53.132;6.394;2023-03-03T20:22:00;23.27;;;4.03;;
52208;SDS011;38507;53.132;6.394;2023-03-03T20:38:25;19.42;;;2.95;;
52208;SDS011;38507;53.132;6.394;2023-03-03T20:46:44;22.02;;;3.13;;
52208;SDS011;38507;53.132;6.394;2023-03-03T20:52:13;26.85;;;3.25;;
52208;SDS011;38507;53.132;6.394;2023-03-03T20:55:01;23.30;;;2.78;;
52208;SDS011;38507;53.132;6.394;2023-03-03T21:00:19;23.88;;;2.75;;
52208;SDS011;38507;53.132;6.394;2023-03-03T21:05:54;21.67;;;2.90;;
52208;SDS011;38507;53.132;6.394;2023-03-03T21:08:32;21.23;;;2.70;;
52208;SDS011;38507;53.132;6.394;2023-03-03T21:11:17;18.10;;;2.95;;
52208;SDS011;38507;53.132;6.394;2023-03-03T21:13:50;16.42;;;2.53;;
52208;SDS011;38507;53.132;6.394;2023-03-03T21:21:36;19.52;;;2.42;;
52208;SDS011;38507;53.132;6.394;2023-03-03T21:24:10;15.73;;;1.98;;
52208;SDS011;38507;53.132;6.394;2023-03-03T21:26:55;15.90;;;2.45;;
52208;SDS011;38507;53.132;6.394;2023-03-03T21:31:53;18.10;;;1.85;;
52208;SDS011;38507;53.132;6.394;2023-03-03T21:34:31;19.77;;;2.17;;
52208;SDS011;38507;53.132;6.394;2023-03-03T21:36:58;17.35;;;2.33;;
52208;SDS011;38507;53.132;6.394;2023-03-03T21:42:12;14.50;;;2.38;;
52208;SDS011;38507;53.132;6.394;2023-03-03T21:47:09;19.20;;;3.13;;
52208;SDS011;38507;53.132;6.394;2023-03-03T21:49:43;20.42;;;2.72;;
52208;SDS011;38507;53.132;6.394;2023-03-03T21:52:10;19.58;;;2.35;;
52208;SDS011;38507;53.132;6.394;2023-03-03T21:54:37;22.52;;;2.90;;
52208;SDS011;38507;53.132;6.394;2023-03-03T21:57:03;13.15;;;2.10;;
52208;SDS011;38507;53.132;6.394;2023-03-03T21:59:29;16.92;;;2.42;;
52208;SDS011;38507;53.132;6.394;2023-03-03T22:01:54;16.70;;;2.38;;
52208;SDS011;38507;53.132;6.394;2023-03-03T22:04:20;25.90;;;2.63;;
52208;SDS011;38507;53.132;6.394;2023-03-03T22:06:46;20.90;;;2.22;;
52208;SDS011;38507;53.132;6.394;2023-03-03T22:09:12;19.15;;;2.30;;
52208;SDS011;38507;53.132;6.394;2023-03-03T22:11:37;20.55;;;2.47;;
52208;SDS011;38507;53.132;6.394;2023-03-03T22:14:04;14.63;;;1.90;;
52208;SDS011;38507;53.132;6.394;2023-03-03T22:16:30;15.38;;;1.75;;
52208;SDS011;38507;53.132;6.394;2023-03-03T22:18:56;15.38;;;2.30;;